RJNA(METAR)
04/28 17:00
METAR RJNA 280800Z 29008KT 230V320 9999 FEW030 21/M01 Q1004 RMK
1CU030 A2968=
戻る
トップページへ戻る
IMOC Co,.Ltd.